Time;durP1;ratioP1;P1;durP2;ratioP2;P2;SDS_P1;SDS_P2;PMS_P1;PMS_P2;Temp;Humidity;BMP_temperature;BMP_pressure;BME280_temperature;BME280_humidity;BME280_pressure;Samples;Min_cycle;Max_cycle;Signal;HPM_P1;HPM_P2
2022/07/15 00:00:28;;;;;;;6.07;2.63;;;23.00;51.40;;;22.31;53.92;96195.47;4922054;28;20118;-65
2022/07/15 00:02:53;;;;;;;5.72;2.78;;;23.00;50.90;;;22.30;54.09;96204.59;4929994;29;20070;-65
2022/07/15 00:05:19;;;;;;;2.83;2.38;;;23.00;51.10;;;22.27;54.75;96207.78;4929350;29;20071;-65
2022/07/15 00:07:45;;;;;;;4.68;2.75;;;23.00;51.40;;;22.23;54.23;96199.47;4958748;28;20047;-65
2022/07/15 00:10:14;;;;;;;5.78;2.50;;;22.90;51.00;;;22.23;54.28;96204.03;4912036;29;20536;-65
2022/07/15 00:12:43;;;;;;;4.68;2.83;;;22.90;50.90;;;22.21;54.80;96200.81;4917523;29;20178;-65
2022/07/15 00:15:10;;;;;;;5.20;2.90;;;22.90;51.30;;;22.19;54.40;96200.25;4935629;29;20035;-65
2022/07/15 00:17:35;;;;;;;4.20;2.97;;;22.90;51.30;;;22.17;54.75;96197.00;4926366;28;20031;-65
2022/07/15 00:20:01;;;;;;;3.42;2.35;;;22.90;51.50;;;22.14;55.19;96208.25;4913462;28;20114;-65
2022/07/15 00:22:27;;;;;;;5.30;2.75;;;22.90;51.80;;;22.14;55.43;96210.94;4934222;28;20122;-66
2022/07/15 00:24:52;;;;;;;3.85;2.55;;;22.90;51.60;;;22.11;55.44;96209.56;4922368;29;20218;-65
2022/07/15 00:27:19;;;;;;;5.22;2.97;;;22.90;51.70;;;22.14;55.20;96208.25;4926014;29;20115;-65
2022/07/15 00:29:44;;;;;;;3.78;2.70;;;22.90;51.70;;;22.13;54.60;96209.31;4930434;28;20036;-65
2022/07/15 00:32:10;;;;;;;4.72;2.50;;;22.80;51.30;;;22.10;54.54;96209.84;4926776;29;20081;-65
2022/07/15 00:34:36;;;;;;;4.93;2.55;;;22.80;51.40;;;22.10;54.55;96209.84;4944602;28;20067;-65
2022/07/15 00:37:02;;;;;;;3.85;2.20;;;22.80;50.80;;;22.06;54.18;96224.81;4940889;28;20058;-65
2022/07/15 00:39:27;;;;;;;5.35;2.67;;;22.60;50.20;;;22.01;54.16;96218.34;4921274;28;20121;-65
2022/07/15 00:41:53;;;;;;;4.88;2.70;;;22.70;50.80;;;21.99;54.66;96225.03;4949831;28;20071;-66
2022/07/15 00:44:19;;;;;;;6.28;2.80;;;22.60;50.50;;;21.95;53.94;96216.69;4948327;28;20150;-65
2022/07/15 00:46:44;;;;;;;4.25;2.47;;;22.60;50.20;;;21.92;53.69;96213.69;4922780;29;20586;-65
2022/07/15 00:49:10;;;;;;;5.07;2.60;;;22.60;49.80;;;21.89;53.27;96215.03;4945387;28;20521;-65
2022/07/15 00:51:41;;;;;;;4.72;2.72;;;22.60;49.30;;;21.82;53.11;96203.75;4922299;29;20443;-66
2022/07/15 00:54:10;;;;;;;4.78;2.50;;;22.50;49.70;;;21.79;53.57;96206.94;4938298;28;20027;-65
2022/07/15 00:56:40;;;;;;;6.90;2.63;;;22.40;49.80;;;21.74;53.24;96208.78;4931016;29;20435;-65
2022/07/15 00:59:05;;;;;;;4.40;2.38;;;22.40;49.20;;;21.68;52.95;96213.25;4934692;29;20490;-65
2022/07/15 01:01:33;;;;;;;6.00;2.83;;;22.30;49.70;;;21.64;52.80;96214.84;4954860;28;20038;-65
2022/07/15 01:03:59;;;;;;;8.18;2.53;;;22.30;49.70;;;21.62;53.01;96214.28;4933744;28;20043;-65
2022/07/15 01:06:27;;;;;;;4.05;2.17;;;22.30;49.90;;;21.57;53.05;96222.28;4947532;28;20062;-64
2022/07/15 01:08:52;;;;;;;4.97;2.40;;;22.20;49.50;;;21.55;52.53;96219.06;4950350;28;20050;-65
2022/07/15 01:11:18;;;;;;;4.57;2.70;;;22.20;49.50;;;21.50;53.16;96211.81;4927902;29;20035;-64
2022/07/15 01:13:44;;;;;;;4.93;2.10;;;22.30;49.90;;;21.48;53.09;96215.78;4888767;29;20498;-64
2022/07/15 01:16:09;;;;;;;4.43;2.80;;;22.20;50.30;;;21.45;52.92;96213.59;4918312;29;20525;-65
2022/07/15 01:18:35;;;;;;;5.65;2.85;;;22.20;50.00;;;21.40;53.40;96212.50;4950777;28;20040;-65
2022/07/15 01:21:04;;;;;;;3.78;2.40;;;22.10;49.90;;;21.36;53.03;96216.75;4946778;28;20078;-65
2022/07/15 01:23:30;;;;;;;6.18;2.50;;;22.10;49.90;;;21.29;53.36;96213.50;4930283;28;20051;-64
2022/07/15 01:25:55;;;;;;;7.18;2.60;;;22.00;50.20;;;21.26;53.58;96216.66;4929675;28;20130;-64
2022/07/15 01:28:21;;;;;;;4.65;2.55;;;21.90;50.50;;;21.21;53.87;96224.59;4948803;28;20069;-64
2022/07/15 01:30:47;;;;;;;6.18;2.53;;;21.90;50.90;;;21.17;54.04;96233.38;4936788;29;20086;-65
2022/07/15 01:33:13;;;;;;;5.75;2.30;;;21.80;51.10;;;21.14;54.50;96234.69;4931907;29;20058;-65
2022/07/15 01:35:39;;;;;;;5.43;2.85;;;21.90;51.40;;;21.11;54.79;96237.88;4902749;28;20602;-64
2022/07/15 01:38:05;;;;;;;4.97;2.53;;;21.80;51.40;;;21.07;54.09;96240.25;4948297;28;20049;-64
2022/07/15 01:40:30;;;;;;;6.32;2.45;;;21.70;51.50;;;21.04;54.83;96235.38;4962202;28;20032;-64
2022/07/15 01:42:56;;;;;;;3.97;2.70;;;21.80;51.80;;;21.01;55.14;96235.09;4935331;29;20074;-65
2022/07/15 01:45:22;;;;;;;5.45;2.70;;;21.70;52.00;;;20.94;54.88;96242.50;4942685;28;20063;-64
2022/07/15 01:47:49;;;;;;;5.25;2.70;;;21.60;52.60;;;20.93;56.20;96240.91;4962796;28;20094;-64
2022/07/15 01:50:15;;;;;;;4.90;2.60;;;21.60;52.70;;;20.88;56.00;96230.16;4929468;29;20506;-65
2022/07/15 01:52:41;;;;;;;4.95;2.50;;;21.50;53.00;;;20.84;55.81;96229.03;4907959;29;20040;-64
2022/07/15 01:55:07;;;;;;;6.18;2.47;;;21.50;52.90;;;20.80;56.41;96234.88;4926861;29;20035;-65
2022/07/15 01:57:33;;;;;;;4.00;2.42;;;21.50;53.30;;;20.76;56.34;96232.94;4932831;29;20035;-65
2022/07/15 01:59:59;;;;;;;6.13;2.60;;;21.50;53.40;;;20.73;56.05;96236.94;4951228;28;20039;-65
2022/07/15 02:02:25;;;;;;;3.30;2.05;;;21.40;51.90;;;20.67;55.94;96235.25;4926347;29;20040;-65
2022/07/15 02:04:51;;;;;;;11.30;2.50;;;21.20;51.50;;;20.61;55.13;96241.59;4932127;29;20130;-64
2022/07/15 02:07:16;;;;;;;3.67;1.77;;;21.30;51.30;;;20.56;54.58;96233.50;4929281;29;20035;-64
2022/07/15 02:09:43;;;;;;;4.72;1.73;;;21.20;50.50;;;20.54;54.16;96235.63;4937857;28;20031;-65
2022/07/15 02:12:08;;;;;;;4.78;1.60;;;21.20;49.70;;;20.52;53.69;96237.72;4934617;28;20047;-64
2022/07/15 02:14:34;;;;;;;3.90;1.58;;;21.20;49.40;;;20.49;52.92;96248.91;4931494;29;20203;-64
2022/07/15 02:17:01;;;;;;;6.95;1.80;;;21.20;48.60;;;20.44;52.37;96230.16;4939650;29;20438;-64
2022/07/15 02:19:27;;;;;;;6.22;1.30;;;21.10;48.30;;;20.40;51.85;96231.69;4927953;29;20095;-64
2022/07/15 02:21:52;;;;;;;5.13;1.50;;;21.10;48.30;;;20.36;52.60;96238.56;4964006;28;20680;-64
2022/07/15 02:24:19;;;;;;;4.47;1.42;;;21.10;48.50;;;20.31;52.65;96231.28;4948770;29;20031;-65
2022/07/15 02:26:45;;;;;;;9.60;2.03;;;21.00;48.10;;;20.28;52.10;96233.66;4949930;28;20536;-64
2022/07/15 02:29:11;;;;;;;3.97;1.60;;;21.00;48.20;;;20.25;51.56;96237.63;4944061;28;20038;-64
2022/07/15 02:31:37;;;;;;;10.13;1.58;;;21.00;48.60;;;20.26;52.46;96239.25;4936302;29;20030;-65
2022/07/15 02:34:03;;;;;;;5.63;1.50;;;21.00;48.80;;;20.24;52.57;96237.88;4927722;29;20540;-64
2022/07/15 02:36:29;;;;;;;5.68;1.58;;;21.00;48.60;;;20.18;52.19;96229.78;4933984;28;20510;-65
2022/07/15 02:38:55;;;;;;;3.85;1.50;;;20.90;48.50;;;20.16;52.44;96244.44;4920471;29;20177;-64
2022/07/15 02:41:21;;;;;;;5.03;1.45;;;20.90;48.90;;;20.15;51.33;96253.50;4932904;29;20032;-65
2022/07/15 02:43:48;;;;;;;4.72;1.50;;;20.80;48.70;;;20.09;52.45;96255.28;4938957;28;20515;-64
2022/07/15 02:46:14;;;;;;;5.88;1.48;;;20.80;48.70;;;20.05;52.53;96246.16;4918911;29;20078;-65
2022/07/15 02:48:39;;;;;;;3.50;1.20;;;20.80;48.90;;;20.01;52.25;96247.69;4914021;29;20107;-64
2022/07/15 02:51:05;;;;;;;5.13;1.45;;;20.70;49.40;;;19.99;52.63;96249.81;4900243;29;20065;-64
2022/07/15 02:53:31;;;;;;;5.40;1.58;;;20.70;49.30;;;19.95;51.96;96253.22;4904573;29;20462;-65
2022/07/15 02:56:00;;;;;;;5.40;1.40;;;20.60;49.30;;;19.91;52.94;96244.84;4920475;28;20125;-64
2022/07/15 02:58:27;;;;;;;3.78;1.70;;;20.60;49.60;;;19.84;52.73;96239.69;4940244;28;20031;-64
2022/07/15 03:00:55;;;;;;;5.43;1.30;;;20.60;49.80;;;19.83;52.06;96250.63;4908745;28;20402;-64
2022/07/15 03:03:21;;;;;;;5.90;1.65;;;20.60;49.80;;;19.79;52.55;96258.31;4946213;28;20031;-65
2022/07/15 03:05:48;;;;;;;4.13;1.50;;;20.60;49.90;;;19.78;52.82;96253.22;4918954;28;20066;-64
2022/07/15 03:08:14;;;;;;;4.15;1.25;;;20.60;50.10;;;19.76;53.51;96271.34;4950928;28;20031;-66
2022/07/15 03:10:40;;;;;;;5.57;1.48;;;20.60;50.10;;;19.73;53.88;96269.16;4923863;29;20091;-64
2022/07/15 03:13:06;;;;;;;4.82;1.70;;;20.50;50.80;;;19.68;54.03;96275.19;4918886;29;20035;-64
2022/07/15 03:15:31;;;;;;;5.70;1.50;;;20.50;50.90;;;19.65;54.17;96275.69;4946512;28;20051;-65
2022/07/15 03:17:57;;;;;;;3.70;1.48;;;20.50;51.10;;;19.59;54.54;96273.97;4944280;28;24744;-64
2022/07/15 03:20:23;;;;;;;4.38;1.73;;;20.40;51.20;;;19.56;54.47;96275.28;4918170;29;20069;-65
2022/07/15 03:22:49;;;;;;;5.32;1.52;;;20.30;51.80;;;19.54;54.96;96277.38;4949205;28;20118;-64
2022/07/15 03:25:14;;;;;;;6.40;1.48;;;20.30;51.70;;;19.50;55.34;96273.56;4924709;29;20055;-64
2022/07/15 03:27:40;;;;;;;5.68;1.85;;;20.30;51.90;;;19.47;55.96;96276.69;4939642;28;20063;-65
2022/07/15 03:30:07;;;;;;;5.95;1.50;;;20.30;52.10;;;19.47;55.96;96276.69;4932864;29;20035;-64
2022/07/15 03:32:32;;;;;;;4.30;1.50;;;20.30;52.50;;;19.46;55.64;96274.25;4939526;28;20039;-64
2022/07/15 03:34:58;;;;;;;5.10;1.75;;;20.20;53.00;;;19.40;55.86;96273.34;4931945;29;20510;-64
2022/07/15 03:37:24;;;;;;;8.90;1.80;;;20.10;53.10;;;19.35;56.11;96275.94;4933776;29;20179;-64
2022/07/15 03:39:50;;;;;;;3.80;1.60;;;20.10;53.50;;;19.30;56.37;96283.03;4939469;28;20048;-64
2022/07/15 03:42:15;;;;;;;5.13;1.60;;;20.10;53.00;;;19.25;57.07;96291.78;4932886;29;20039;-64
2022/07/15 03:44:41;;;;;;;5.35;1.55;;;20.10;53.00;;;19.23;57.15;96283.16;4937883;29;20031;-65
2022/07/15 03:47:07;;;;;;;3.88;1.77;;;20.10;53.00;;;19.21;57.18;96290.59;4949217;28;20450;-64
2022/07/15 03:49:33;;;;;;;5.07;1.58;;;20.10;53.00;;;19.19;56.38;96292.69;4935084;28;20559;-64
2022/07/15 03:51:58;;;;;;;4.43;1.73;;;20.10;53.10;;;19.17;57.39;96290.28;4939218;28;20451;-65
2022/07/15 03:54:24;;;;;;;5.07;1.60;;;20.00;53.30;;;19.16;57.64;96290.53;4922437;29;20024;-64
2022/07/15 03:56:50;;;;;;;5.60;1.52;;;20.00;53.60;;;19.13;57.00;96293.66;4922971;29;20037;-64
2022/07/15 03:59:16;;;;;;;4.22;1.30;;;19.90;53.90;;;19.08;58.49;96290.91;4921637;29;20070;-65
2022/07/15 04:01:42;;;;;;;4.03;1.83;;;19.80;54.60;;;19.04;58.64;96295.91;4930223;28;20032;-66
2022/07/15 04:04:08;;;;;;;10.13;5.68;;;19.80;55.00;;;19.00;59.01;96299.25;4935823;28;20525;-64
2022/07/15 04:06:34;;;;;;;7.20;3.70;;;19.70;55.50;;;18.95;58.94;96290.13;4957243;28;20042;-64
2022/07/15 04:09:00;;;;;;;6.10;3.33;;;19.70;55.20;;;18.89;59.29;96293.75;4926202;29;20047;-65
2022/07/15 04:11:26;;;;;;;6.80;1.98;;;19.70;55.20;;;18.85;59.02;96291.78;4948140;28;20098;-64
2022/07/15 04:13:51;;;;;;;3.38;1.75;;;19.70;55.00;;;18.81;58.73;96302.13;4935876;28;20126;-65
2022/07/15 04:16:17;;;;;;;5.32;1.90;;;19.60;54.90;;;18.76;58.61;96299.31;4930819;29;20067;-65
2022/07/15 04:18:43;;;;;;;5.43;2.00;;;19.60;55.10;;;18.76;58.63;96299.31;4924948;29;20134;-64
2022/07/15 04:21:09;;;;;;;8.02;2.35;;;19.60;54.70;;;18.79;58.99;96300.75;4963787;28;20041;-65
2022/07/15 04:23:35;;;;;;;14.07;6.93;;;19.70;54.50;;;18.80;58.78;96299.69;4939757;28;20051;-64
2022/07/15 04:26:00;;;;;;;15.07;10.80;;;19.80;54.80;;;18.82;59.87;96295.75;4931560;28;20046;-64
2022/07/15 04:28:26;;;;;;;18.80;12.75;;;19.70;55.30;;;18.83;59.36;96299.22;4933782;29;20039;-64
2022/07/15 04:30:52;;;;;;;9.60;6.43;;;19.80;55.40;;;18.85;59.32;96297.94;4921447;29;20050;-65
2022/07/15 04:33:19;;;;;;;8.73;4.93;;;19.80;55.20;;;18.88;60.48;96302.78;4932313;28;20130;-65
2022/07/15 04:35:45;;;;;;;7.10;3.75;;;19.80;55.50;;;18.88;60.20;96302.78;4931044;28;20043;-64
2022/07/15 04:38:11;;;;;;;6.18;2.17;;;19.80;55.30;;;18.87;60.72;96309.16;4935031;28;20098;-64
2022/07/15 04:40:39;;;;;;;5.75;2.08;;;19.90;55.60;;;18.90;60.64;96298.03;4947671;28;20039;-64
2022/07/15 04:43:05;;;;;;;4.30;1.70;;;19.90;55.70;;;18.92;59.55;96308.44;4950045;28;20689;-65
2022/07/15 04:45:31;;;;;;;6.43;2.28;;;19.90;55.40;;;18.94;60.20;96303.69;4918446;29;20042;-64
2022/07/15 04:47:56;;;;;;;9.80;7.30;;;20.00;55.30;;;18.94;60.58;96304.50;4941950;28;20035;-64
2022/07/15 04:53:07;;;;;;;4.15;1.90;;;20.00;55.20;;;18.95;60.82;96314.13;4952322;28;21771;-64
2022/07/15 04:55:33;;;;;;;4.60;1.90;;;19.90;55.60;;;18.95;60.74;96306.13;4940009;28;20190;-64
2022/07/15 04:57:58;;;;;;;3.72;1.63;;;20.00;55.60;;;18.95;60.68;96314.13;4930421;28;20419;-64
2022/07/15 05:00:24;;;;;;;4.53;2.00;;;20.00;55.20;;;18.94;60.56;96312.50;4917459;29;20043;-65
2022/07/15 05:02:50;;;;;;;5.18;1.70;;;20.00;54.70;;;18.92;60.01;96306.59;4937623;28;20057;-64
2022/07/15 05:05:16;;;;;;;6.07;2.05;;;20.00;55.20;;;18.95;59.51;96316.78;4946611;28;20050;-64
2022/07/15 05:07:41;;;;;;;5.03;1.90;;;20.00;55.00;;;18.96;60.75;96313.06;4952028;28;20035;-64
2022/07/15 05:10:08;;;;;;;5.47;1.92;;;20.10;55.30;;;18.98;61.15;96313.63;4925431;29;20111;-65
2022/07/15 05:12:35;;;;;;;6.13;1.80;;;20.10;56.00;;;18.98;60.14;96316.31;4911048;29;20039;-65
2022/07/15 05:15:01;;;;;;;5.68;3.10;;;20.00;55.40;;;19.04;60.66;96313.75;4905504;29;20514;-65
2022/07/15 05:17:27;;;;;;;7.35;2.35;;;20.10;55.10;;;19.08;60.22;96317.56;4930854;29;20043;-65
2022/07/15 05:19:53;;;;;;;5.03;1.95;;;20.20;55.10;;;19.12;61.02;96319.53;4944247;28;20411;-65
2022/07/15 05:22:19;;;;;;;5.18;1.95;;;20.30;55.00;;;19.17;59.94;96321.47;4939793;28;20133;-64
2022/07/15 05:24:45;;;;;;;4.88;1.92;;;20.40;54.20;;;19.20;60.45;96319.13;4934227;28;20527;-65
2022/07/15 05:27:11;;;;;;;6.25;1.98;;;20.40;54.00;;;19.24;59.59;96320.31;4939202;28;20063;-65
2022/07/15 05:29:36;;;;;;;4.28;1.73;;;20.50;53.50;;;19.29;59.28;96319.59;4920966;29;20097;-65
2022/07/15 05:32:02;;;;;;;4.93;1.55;;;20.50;53.70;;;19.34;59.21;96322.34;4942422;28;20084;-65
2022/07/15 05:34:28;;;;;;;4.72;1.50;;;20.60;53.00;;;19.40;58.56;96324.03;4935832;28;20174;-66
2022/07/15 05:36:54;;;;;;;5.07;1.95;;;20.60;52.70;;;19.45;58.36;96324.13;4935961;29;20031;-65
2022/07/15 05:39:19;;;;;;;9.30;2.03;;;20.70;52.60;;;19.49;58.36;96324.47;4952279;28;20031;-65
2022/07/15 05:41:45;;;;;;;5.68;1.67;;;20.70;51.40;;;19.53;57.21;96326.47;4939604;28;20583;-65
2022/07/15 05:44:11;;;;;;;5.80;1.67;;;20.70;51.30;;;19.58;57.90;96336.41;4949454;28;20043;-65
2022/07/15 05:46:37;;;;;;;7.22;2.83;;;20.80;51.30;;;19.64;56.96;96343.44;4939329;28;20510;-66
2022/07/15 05:49:02;;;;;;;4.57;1.75;;;20.90;51.30;;;19.68;57.01;96327.75;4945478;28;20082;-65
2022/07/15 05:51:28;;;;;;;8.10;2.15;;;20.90;50.50;;;19.73;56.23;96331.34;4933080;29;20062;-64
2022/07/15 05:53:54;;;;;;;2.97;1.58;;;20.90;50.50;;;19.78;57.01;96323.41;4905148;28;20072;-63
2022/07/15 05:56:20;;;;;;;4.38;1.52;;;21.00;50.50;;;19.86;56.96;96328.34;4939774;28;20121;-65
2022/07/15 05:58:46;;;;;;;8.50;2.40;;;21.10;50.50;;;19.94;56.92;96329.03;4941360;28;20145;-66
2022/07/15 06:01:11;;;;;;;5.13;1.60;;;21.20;50.30;;;20.02;55.78;96332.09;4929535;29;20039;-67
2022/07/15 06:03:37;;;;;;;5.53;1.67;;;21.40;49.90;;;20.10;55.11;96334.34;4933174;29;20512;-65
2022/07/15 06:06:04;;;;;;;3.60;1.20;;;21.50;48.80;;;20.15;54.74;96337.13;4933961;28;20145;-65
2022/07/15 06:08:30;;;;;;;5.05;1.90;;;21.50;48.40;;;20.25;54.73;96343.66;4953343;28;20048;-67
2022/07/15 06:10:56;;;;;;;4.55;1.65;;;21.60;48.40;;;20.36;55.19;96340.06;4926395;29;20032;-67
2022/07/15 06:13:22;;;;;;;4.28;1.38;;;21.70;47.70;;;20.51;54.19;96343.00;4945733;28;20074;-67
2022/07/15 06:15:48;;;;;;;7.50;1.38;;;22.00;47.00;;;20.67;53.64;96347.53;4934500;28;20076;-67
2022/07/15 06:18:13;;;;;;;3.58;1.20;;;22.20;46.30;;;20.80;52.50;96339.13;4938473;28;20039;-67
2022/07/15 06:20:39;;;;;;;5.18;1.40;;;22.40;45.20;;;20.94;51.74;96341.44;4927727;28;20036;-66
2022/07/15 06:23:05;;;;;;;4.88;1.27;;;22.60;43.60;;;21.08;50.59;96337.38;4940164;28;20233;-66
2022/07/15 06:25:31;;;;;;;4.25;1.30;;;22.80;43.20;;;21.24;50.40;96341.84;4946826;28;20053;-66
2022/07/15 06:27:56;;;;;;;3.80;1.38;;;23.10;42.60;;;21.35;49.68;96348.94;4916604;28;20063;-68
2022/07/15 06:30:22;;;;;;;3.92;1.65;;;23.30;42.20;;;21.52;49.25;96338.16;4932190;28;20518;-67
2022/07/15 06:32:48;;;;;;;7.45;1.33;;;23.50;42.20;;;21.70;49.57;96345.00;4956146;28;20521;-68
2022/07/15 06:35:14;;;;;;;4.82;1.13;;;23.70;42.10;;;21.88;49.31;96347.31;4936025;29;20067;-66
2022/07/15 06:37:40;;;;;;;4.20;1.08;;;23.90;42.00;;;22.06;48.94;96353.41;4944617;28;20054;-66
2022/07/15 06:40:07;;;;;;;6.38;2.08;;;24.20;41.70;;;22.24;49.35;96350.34;4920148;29;20036;-67
2022/07/15 06:42:32;;;;;;;5.78;1.30;;;24.40;41.70;;;22.42;48.81;96355.31;4936270;29;20035;-66
2022/07/15 06:44:58;;;;;;;5.13;1.20;;;24.60;41.30;;;22.64;48.55;96340.97;4952547;28;20107;-66
2022/07/15 06:47:24;;;;;;;3.03;1.10;;;24.90;40.10;;;22.78;47.28;96340.22;4953503;28;20038;-67
2022/07/15 06:49:50;;;;;;;8.00;1.38;;;25.10;39.10;;;22.97;46.75;96348.69;4942694;28;20035;-67
2022/07/15 06:52:16;;;;;;;5.05;0.90;;;25.30;38.90;;;23.15;47.05;96340.19;4934812;28;20040;-66
2022/07/15 06:54:42;;;;;;;6.50;2.08;;;25.50;39.10;;;23.30;46.25;96341.28;4935869;29;20645;-66
2022/07/15 06:57:08;;;;;;;4.05;1.25;;;25.60;38.50;;;23.45;45.67;96341.34;4933862;29;20046;-67
2022/07/15 06:59:34;;;;;;;6.68;1.25;;;25.80;38.10;;;23.59;45.95;96350.53;4946844;28;20035;-67
2022/07/15 07:02:00;;;;;;;4.63;1.30;;;26.00;37.90;;;23.70;45.15;96352.16;4940071;28;20043;-67
2022/07/15 07:04:26;;;;;;;6.95;2.05;;;26.10;37.30;;;23.82;44.88;96358.13;4918101;29;20019;-67
2022/07/15 07:06:52;;;;;;;7.45;2.67;;;26.30;37.30;;;23.99;44.89;96354.34;4905146;29;20052;-67
2022/07/15 07:09:17;;;;;;;5.72;2.00;;;26.50;37.50;;;24.17;44.29;96351.13;4914449;29;20046;-67
2022/07/15 07:11:43;;;;;;;4.95;1.10;;;26.80;36.30;;;24.36;43.97;96354.94;4930171;28;20525;-67
2022/07/15 07:14:09;;;;;;;5.15;1.13;;;27.10;36.40;;;24.57;43.28;96361.09;4952150;28;20055;-67
2022/07/15 07:16:35;;;;;;;4.35;1.10;;;27.30;34.60;;;24.74;42.72;96355.41;4935107;29;20095;-67
2022/07/15 07:19:00;;;;;;;2.33;1.20;;;27.50;34.90;;;24.99;42.93;96358.06;4951640;28;20390;-66
2022/07/15 07:21:26;;;;;;;4.47;1.75;;;27.70;35.30;;;25.21;42.75;96360.41;4936104;28;20036;-67
2022/07/15 07:23:52;;;;;;;15.13;8.32;;;28.00;34.20;;;25.45;41.49;96355.19;4942966;28;20039;-68
2022/07/15 07:26:18;;;;;;;3.53;1.45;;;28.10;33.70;;;25.67;40.81;96357.53;4948660;28;20036;-67
2022/07/15 07:28:44;;;;;;;5.45;1.20;;;28.30;32.80;;;25.92;40.28;96359.25;4934349;28;20039;-67
2022/07/15 07:31:12;;;;;;;3.55;0.95;;;28.50;32.90;;;26.12;39.95;96358.31;4934874;29;20039;-67
2022/07/15 07:33:38;;;;;;;6.25;0.90;;;28.60;32.30;;;26.26;39.54;96359.28;4935233;29;20063;-67
2022/07/15 07:36:04;;;;;;;2.65;0.93;;;28.70;32.60;;;26.37;38.77;96354.63;4934947;28;20043;-68
2022/07/15 07:38:32;;;;;;;3.22;0.90;;;28.80;31.30;;;26.52;39.02;96351.81;4928056;28;20050;-67
2022/07/15 07:40:58;;;;;;;5.10;1.08;;;29.00;32.70;;;26.70;38.94;96356.47;4935588;29;20499;-67
2022/07/15 07:43:23;;;;;;;3.58;1.25;;;29.30;31.80;;;26.96;38.06;96354.31;4943848;28;20046;-68
2022/07/15 07:45:49;;;;;;;2.42;1.10;;;29.60;30.70;;;27.19;37.70;96343.84;4951369;28;20130;-67
2022/07/15 07:48:16;;;;;;;2.15;0.80;;;29.90;30.90;;;27.37;37.24;96346.56;4930285;29;20032;-68
2022/07/15 07:50:43;;;;;;;6.55;1.00;;;30.00;30.60;;;27.63;37.03;96346.28;4948408;28;20520;-67
2022/07/15 07:53:09;;;;;;;3.60;0.90;;;30.30;29.80;;;27.86;36.82;96342.69;4948872;28;20050;-67
2022/07/15 07:55:35;;;;;;;5.65;1.20;;;30.50;29.70;;;28.04;35.85;96344.56;4946734;28;20196;-67
2022/07/15 07:58:01;;;;;;;4.90;1.10;;;30.70;28.80;;;28.14;35.39;96342.81;4939148;28;20093;-67
2022/07/15 08:00:27;;;;;;;4.32;1.15;;;30.80;27.80;;;28.30;34.84;96341.50;4945736;28;20039;-67
2022/07/15 08:02:54;;;;;;;7.07;1.55;;;30.90;27.90;;;28.46;34.49;96336.59;4951431;28;20051;-67
2022/07/15 08:05:20;;;;;;;3.72;1.00;;;31.00;27.80;;;28.55;33.73;96332.94;4911128;29;20043;-65
2022/07/15 08:07:46;;;;;;;8.15;2.10;;;31.00;28.10;;;28.78;33.91;96335.78;4931880;28;20031;-66
2022/07/15 08:10:12;;;;;;;8.32;1.98;;;31.10;28.50;;;28.95;34.22;96330.59;4965583;28;20401;-67
2022/07/15 08:12:38;;;;;;;5.53;1.33;;;31.30;29.00;;;29.11;33.04;96329.19;4934269;28;20448;-67
2022/07/15 08:15:06;;;;;;;7.32;1.20;;;31.30;27.40;;;29.18;33.08;96324.16;4930562;28;20203;-66
2022/07/15 08:17:31;;;;;;;5.25;1.00;;;31.40;28.40;;;29.24;32.56;96317.56;4931644;28;20035;-66
2022/07/15 08:19:57;;;;;;;5.30;1.00;;;31.40;26.90;;;29.18;32.45;96323.34;4916803;28;20077;-67
2022/07/15 08:22:23;;;;;;;2.42;0.85;;;31.60;26.70;;;29.26;33.30;96325.38;4956567;28;20062;-67
2022/07/15 08:24:52;;;;;;;3.20;0.90;;;32.00;28.00;;;29.48;32.99;96321.97;4952991;28;20565;-67
2022/07/15 08:27:18;;;;;;;2.20;0.88;;;32.20;27.30;;;29.71;32.41;96317.38;4920558;28;20031;-67
2022/07/15 08:29:44;;;;;;;2.58;1.00;;;32.60;25.80;;;29.90;31.71;96322.66;4929960;28;20090;-67
2022/07/15 08:32:09;;;;;;;3.03;0.90;;;32.60;25.80;;;30.10;31.55;96317.56;4930699;28;20125;-67
2022/07/15 08:34:35;;;;;;;3.72;1.00;;;32.90;26.50;;;30.17;31.00;96315.22;4938126;29;20035;-66
2022/07/15 08:37:01;;;;;;;4.50;1.25;;;32.60;24.90;;;30.27;29.95;96322.31;4920782;28;20064;-66
2022/07/15 08:39:27;;;;;;;3.53;1.00;;;32.70;24.10;;;30.32;30.59;96321.38;4942163;28;20438;-68
2022/07/15 08:41:52;;;;;;;4.57;1.00;;;32.90;24.90;;;30.44;30.31;96310.75;4947450;28;20854;-65
2022/07/15 08:44:18;;;;;;;7.55;1.00;;;33.10;25.60;;;30.65;30.66;96319.19;4941677;28;20047;-68
2022/07/15 08:46:47;;;;;;;2.70;1.00;;;33.20;25.90;;;30.78;29.22;96319.13;4927424;28;20101;-66
2022/07/15 08:49:18;;;;;;;5.70;1.47;;;33.50;25.10;;;31.00;29.95;96312.00;4922800;28;20449;-65
2022/07/15 08:51:46;;;;;;;2.83;1.00;;;33.50;25.50;;;31.23;29.50;96304.56;4918694;28;20040;-66
2022/07/15 08:54:13;;;;;;;2.35;0.90;;;33.60;24.90;;;31.42;29.53;96307.81;4944844;28;20126;-66
2022/07/15 08:56:38;;;;;;;3.28;1.25;;;33.70;25.10;;;31.56;29.46;96305.75;4935425;28;20127;-66
2022/07/15 08:59:05;;;;;;;3.65;1.00;;;33.70;24.40;;;31.54;28.86;96307.22;4932948;28;20042;-67
2022/07/15 09:01:32;;;;;;;3.90;1.20;;;33.60;24.60;;;31.63;28.96;96299.84;4910810;28;20506;-66
2022/07/15 09:03:58;;;;;;;4.03;1.10;;;33.90;25.30;;;31.72;29.22;96308.84;4919336;28;20042;-66
2022/07/15 09:06:38;;;;;;;2.72;0.90;;;34.00;25.50;;;31.77;27.27;96299.72;4937254;29;20078;-67
2022/07/15 09:09:31;;;;;;;1.90;0.90;;;33.70;24.00;;;31.73;26.94;96309.66;4950072;28;20035;-66
2022/07/15 09:12:08;;;;;;;4.28;1.30;;;33.50;24.30;;;31.58;27.58;96300.00;4953417;28;21019;-66
2022/07/15 09:14:36;;;;;;;5.20;1.20;;;33.10;24.20;;;31.54;28.30;96304.47;4928866;29;20043;-66
2022/07/15 09:17:11;;;;;;;7.82;1.10;;;33.60;24.10;;;31.55;27.66;96306.88;4940985;29;20058;-66
2022/07/15 09:19:56;;;;;;;4.55;1.33;;;33.50;24.60;;;31.49;27.77;96302.72;4957319;28;20039;-66
2022/07/15 09:22:23;;;;;;;4.00;1.25;;;33.40;24.50;;;31.42;28.44;96307.81;4939114;29;20039;-66
2022/07/15 09:25:09;;;;;;;5.20;1.23;;;33.50;25.00;;;31.40;27.45;96304.63;4922222;28;20046;-66
2022/07/15 09:27:38;;;;;;;4.47;1.20;;;33.40;24.40;;;31.43;28.15;96298.53;4936075;29;20123;-66
2022/07/15 09:33:37;;;;;;;3.80;1.00;;;33.60;25.80;;;31.63;28.64;96303.38;4962963;28;20050;-67
2022/07/15 09:36:20;;;;;;;3.67;1.15;;;33.70;25.00;;;31.82;27.85;96305.81;4936339;28;20494;-67
2022/07/15 09:38:57;;;;;;;2.88;1.20;;;34.10;25.10;;;31.88;27.44;96306.44;4951471;28;20406;-70
2022/07/15 09:41:36;;;;;;;4.68;1.27;;;34.10;24.30;;;32.02;28.46;96303.56;4945734;28;20114;-69
2022/07/15 09:44:07;;;;;;;4.57;1.30;;;34.40;24.90;;;32.11;28.58;96305.13;4926659;28;20047;-66
2022/07/15 09:46:53;;;;;;;3.35;1.20;;;34.40;24.10;;;32.21;27.18;96304.81;4942142;28;20054;-70
2022/07/15 09:49:22;;;;;;;5.65;1.55;;;34.60;24.20;;;32.24;27.24;96301.44;4949450;28;20041;-70
2022/07/15 09:51:55;;;;;;;3.28;1.30;;;34.60;23.10;;;32.26;26.46;96306.59;4956394;28;20054;-67
2022/07/15 09:54:23;;;;;;;3.67;1.75;;;34.60;23.60;;;32.27;27.22;96298.09;4945334;28;20093;-71
2022/07/15 09:56:49;;;;;;;9.30;1.58;;;34.70;24.00;;;32.38;27.18;96295.88;4939955;28;20410;-71
2022/07/15 09:59:15;;;;;;;4.43;1.15;;;35.00;22.80;;;32.43;26.96;96295.69;4914801;28;20035;-72
2022/07/15 10:01:41;;;;;;;3.08;1.17;;;35.10;23.50;;;32.52;27.07;96284.75;4937648;28;20409;-71
2022/07/15 10:04:08;;;;;;;4.50;1.30;;;35.40;22.90;;;32.54;26.89;96290.66;4928897;29;20109;-71
2022/07/15 10:06:38;;;;;;;2.42;1.23;;;35.50;22.00;;;32.66;27.20;96301.69;4966757;28;20055;-71
2022/07/15 10:09:04;;;;;;;;;;;35.90;21.80;;;32.79;25.55;96284.34;4934758;29;20057;-67
2022/07/15 10:11:35;;;;;;;3.22;1.30;;;36.00;21.00;;;32.98;25.93;96294.06;4945929;28;19958;-66
2022/07/15 10:14:12;;;;;;;4.50;1.55;;;36.30;21.50;;;33.41;26.20;96289.19;4939747;28;20031;-67
2022/07/15 10:17:05;;;;;;;7.07;1.50;;;37.10;21.90;;;33.78;26.30;96297.59;4946284;28;20062;-66
2022/07/15 10:20:02;;;;;;;3.20;1.15;;;37.60;21.30;;;34.13;24.70;96287.19;4935132;28;20356;-66
2022/07/15 10:22:57;;;;;;;4.50;1.30;;;37.90;19.90;;;34.50;25.48;96285.41;4940740;28;20785;-66
2022/07/15 10:26:12;;;;;;;4.20;1.23;;;38.40;20.70;;;34.76;24.60;96282.38;4932925;28;20175;-68